Time;durP1;ratioP1;P1;durP2;ratioP2;P2;SDS_P1;SDS_P2;PMS_P1;PMS_P2;Temp;Humidity;BMP_temperature;BMP_pressure;BME280_temperature;BME280_humidity;BME280_pressure;Samples;Min_cycle;Max_cycle;Signal;HPM_P1;HPM_P2
2024/01/16 00:00:00;;;;;;;0.50;0.50;;;;;;;-1.56;100.00;100816.13;5094203;28;20016;-62
2024/01/16 00:02:25;;;;;;;0.55;0.55;;;;;;;-1.58;100.00;100810.97;5094527;28;20024;-62
2024/01/16 00:04:50;;;;;;;0.60;0.60;;;;;;;-1.55;100.00;100817.91;5094668;28;20106;-63
2024/01/16 00:07:16;;;;;;;0.60;0.60;;;;;;;-1.55;100.00;100817.91;5093770;28;20036;-62
2024/01/16 00:09:41;;;;;;;0.55;0.55;;;;;;;-1.55;100.00;100813.75;5094309;28;20028;-62
2024/01/16 00:12:06;;;;;;;0.50;0.50;;;;;;;-1.52;100.00;100819.03;5094554;28;20484;-62
2024/01/16 00:14:36;;;;;;;0.50;0.50;;;;;;;-1.51;100.00;100814.84;5093599;28;20036;-62
2024/01/16 00:17:02;;;;;;;0.50;0.50;;;;;;;-1.48;100.00;100810.03;5094464;28;20020;-62
2024/01/16 00:19:27;;;;;;;0.60;0.60;;;;;;;-1.48;100.00;100810.03;5094396;28;20032;-62
2024/01/16 00:21:53;;;;;;;0.60;0.60;;;;;;;-1.46;100.00;100812.66;5093620;28;20047;-62
2024/01/16 00:24:18;;;;;;;0.40;0.40;;;;;;;-1.45;100.00;100825.44;5094270;28;20028;-62
2024/01/16 00:26:43;;;;;;;0.50;0.50;;;;;;;-1.45;100.00;100819.50;5093901;28;20031;-62
2024/01/16 00:29:09;;;;;;;0.50;0.50;;;;;;;-1.44;100.00;100822.13;5093761;28;20107;-62
2024/01/16 00:31:34;;;;;;;0.50;0.50;;;;;;;-1.44;100.00;100821.28;5094344;28;20161;-62
2024/01/16 00:34:00;;;;;;;0.50;0.50;;;;;;;-1.42;100.00;100829.84;5094114;28;20035;-62
2024/01/16 00:36:25;;;;;;;0.50;0.50;;;;;;;-1.44;100.00;100834.78;5093505;28;20414;-62
2024/01/16 00:38:50;;;;;;;0.60;0.60;;;;;;;-1.40;100.00;100833.38;5094192;28;20037;-62
2024/01/16 00:41:16;;;;;;;0.50;0.50;;;;;;;-1.40;100.00;100813.16;5093490;28;20492;-62
2024/01/16 00:43:43;;;;;;;0.50;0.50;;;;;;;-1.35;100.00;100822.84;5093491;28;20115;-62
2024/01/16 00:46:08;;;;;;;0.60;0.60;;;;;;;-1.41;100.00;100817.31;5093804;28;20044;-62
2024/01/16 00:48:33;;;;;;;0.50;0.50;;;;;;;-1.40;100.00;100816.56;5093645;28;20271;-62
2024/01/16 00:50:59;;;;;;;0.50;0.50;;;;;;;-1.41;100.00;100829.94;5093273;28;20073;-62
2024/01/16 00:53:26;;;;;;;0.50;0.50;;;;;;;-1.42;100.00;100815.56;5093790;28;20030;-62
2024/01/16 00:55:53;;;;;;;0.52;0.52;;;;;;;-1.39;100.00;100827.56;5093080;28;20028;-63
2024/01/16 00:58:19;;;;;;;0.60;0.60;;;;;;;-1.41;100.00;100822.38;5093492;28;20098;-62
2024/01/16 01:00:44;;;;;;;0.60;0.60;;;;;;;-1.42;100.00;100833.25;5093761;28;20051;-63
2024/01/16 01:03:09;;;;;;;0.50;0.50;;;;;;;-1.40;100.00;100826.66;5092512;28;20372;-62
2024/01/16 01:05:35;;;;;;;0.50;0.50;;;;;;;-1.41;100.00;100827.41;5093616;28;20040;-62
2024/01/16 01:08:00;;;;;;;0.50;0.50;;;;;;;-1.39;100.00;100833.50;5093770;28;20016;-62
2024/01/16 01:10:25;;;;;;;0.50;0.50;;;;;;;-1.39;100.00;100830.97;5092620;28;20126;-62
2024/01/16 01:12:54;;;;;;;0.50;0.50;;;;;;;-1.38;100.00;100821.72;5093580;28;20032;-62
2024/01/16 01:15:22;;;;;;;0.57;0.57;;;;;;;-1.39;100.00;100830.97;5093215;28;20016;-62
2024/01/16 01:17:51;;;;;;;0.50;0.50;;;;;;;-1.38;100.00;100822.63;5092443;28;20062;-62
2024/01/16 01:20:18;;;;;;;0.50;0.50;;;;;;;-1.39;100.00;100830.09;5093036;28;20114;-62
2024/01/16 01:22:44;;;;;;;0.50;0.50;;;;;;;-1.37;100.00;100828.53;5093261;28;20434;-62
2024/01/16 01:25:10;;;;;;;0.40;0.40;;;;;;;-1.37;100.00;100826.91;5092398;28;20298;-63
2024/01/16 01:27:36;;;;;;;0.52;0.52;;;;;;;-1.39;100.00;100825.91;5093151;28;20035;-62
2024/01/16 01:30:01;;;;;;;0.60;0.60;;;;;;;-1.36;100.00;100826.13;5093016;28;20027;-62
2024/01/16 01:32:26;;;;;;;0.60;0.60;;;;;;;-1.36;100.00;100823.59;5092390;28;20028;-62
2024/01/16 01:34:52;;;;;;;0.47;0.47;;;;;;;-1.36;100.00;100827.78;5093274;28;20028;-62
2024/01/16 01:37:17;;;;;;;0.55;0.55;;;;;;;-1.36;100.00;100820.19;5092736;28;20020;-62
2024/01/16 01:39:45;;;;;;;0.50;0.50;;;;;;;-1.36;100.00;100820.19;5092590;28;20020;-62
2024/01/16 01:42:10;;;;;;;0.40;0.40;;;;;;;-1.35;100.00;100822.84;5092672;28;20047;-62
2024/01/16 01:44:35;;;;;;;0.60;0.60;;;;;;;-1.36;100.00;100826.13;5092748;28;20027;-62
2024/01/16 01:47:02;;;;;;;0.50;0.50;;;;;;;-1.37;100.00;100824.38;5092002;28;20105;-62
2024/01/16 01:49:27;;;;;;;0.50;0.50;;;;;;;-1.36;100.00;100827.78;5092752;28;20020;-62
2024/01/16 01:51:54;;;;;;;0.50;0.50;;;;;;;-1.36;100.00;100837.91;5092547;28;20076;-62
2024/01/16 01:54:20;;;;;;;0.60;0.60;;;;;;;-1.34;100.00;100834.72;5092185;28;20024;-62
2024/01/16 01:56:47;;;;;;;0.50;0.50;;;;;;;-1.35;100.00;100842.19;5092704;28;20438;-62
2024/01/16 01:59:14;;;;;;;0.60;0.60;;;;;;;-1.34;100.00;100843.97;5091252;28;20027;-62
2024/01/16 02:01:41;;;;;;;0.50;0.50;;;;;;;-1.35;100.00;100843.06;5093132;28;20028;-62
2024/01/16 02:04:06;;;;;;;0.50;0.50;;;;;;;-1.35;100.00;100840.53;5092928;28;20051;-62
2024/01/16 02:06:32;;;;;;;0.60;0.60;;;;;;;-1.34;100.00;100852.44;5091719;28;20464;-62
2024/01/16 02:08:59;;;;;;;0.55;0.55;;;;;;;-1.33;100.00;100849.13;5092497;28;20357;-62
2024/01/16 02:11:25;;;;;;;0.60;0.60;;;;;;;-1.31;100.00;100838.28;5092498;28;20073;-62
2024/01/16 02:13:50;;;;;;;0.43;0.43;;;;;;;-1.30;100.00;100834.94;5091939;28;20082;-62
2024/01/16 02:16:23;;;;;;;0.50;0.50;;;;;;;-1.31;100.00;100833.22;5092459;28;20053;-62
2024/01/16 02:18:50;;;;;;;0.50;0.50;;;;;;;-1.29;100.00;100841.78;5092831;28;20024;-62
2024/01/16 02:21:22;;;;;;;0.50;0.50;;;;;;;-1.30;100.00;100840.00;5091704;28;20028;-62
2024/01/16 02:23:48;;;;;;;0.50;0.50;;;;;;;-1.28;100.00;100838.50;5092718;28;20013;-62
2024/01/16 02:26:15;;;;;;;0.50;0.50;;;;;;;-1.29;100.00;100841.78;5091886;28;20024;-62
2024/01/16 02:28:41;;;;;;;0.50;0.50;;;;;;;-1.30;100.00;100843.44;5092292;28;20035;-62
2024/01/16 02:31:07;;;;;;;0.50;0.50;;;;;;;-1.30;100.00;100840.91;5092718;28;20024;-62
2024/01/16 02:33:32;;;;;;;0.50;0.50;;;;;;;-1.30;100.00;100850.13;5092119;28;20043;-62
2024/01/16 02:35:58;;;;;;;0.50;0.50;;;;;;;-1.31;100.00;100851.78;5092225;28;20539;-62
2024/01/16 02:38:24;;;;;;;0.50;0.50;;;;;;;-1.34;100.00;100854.94;5092399;28;20024;-62
2024/01/16 02:40:50;;;;;;;0.60;0.60;;;;;;;-1.31;100.00;100863.56;5091954;28;20047;-63
2024/01/16 02:43:15;;;;;;;0.50;0.50;;;;;;;-1.31;100.00;100863.56;5091559;28;20495;-62
2024/01/16 02:45:41;;;;;;;0.50;0.50;;;;;;;-1.29;100.00;100867.06;5092368;28;20032;-62
2024/01/16 02:48:06;;;;;;;0.60;0.60;;;;;;;-1.31;100.00;100859.38;5092101;28;20024;-62
2024/01/16 02:50:31;;;;;;;0.50;0.50;;;;;;;-1.31;100.00;100853.44;5091691;28;20028;-62
2024/01/16 02:52:57;;;;;;;0.52;0.52;;;;;;;-1.31;100.00;100861.91;5092391;28;20115;-62
2024/01/16 02:55:22;;;;;;;0.50;0.50;;;;;;;-1.29;100.00;100862.00;5091283;28;20032;-62
2024/01/16 02:57:47;;;;;;;0.57;0.57;;;;;;;-1.29;100.00;100862.91;5092535;28;20024;-62
2024/01/16 03:00:13;;;;;;;0.50;0.50;;;;;;;-1.29;100.00;100867.97;5092018;28;20505;-62
2024/01/16 03:02:39;;;;;;;0.50;0.50;;;;;;;-1.27;100.00;100870.59;5091687;28;20082;-62
2024/01/16 03:05:05;;;;;;;0.60;0.60;;;;;;;-1.28;100.00;100867.19;5092293;28;20451;-62
2024/01/16 03:07:30;;;;;;;0.60;0.60;;;;;;;-1.29;100.00;100857.84;5091867;28;20039;-62
2024/01/16 03:09:56;;;;;;;0.50;0.50;;;;;;;-1.30;100.00;100850.13;5091375;28;20024;-61
2024/01/16 03:12:21;;;;;;;0.60;0.60;;;;;;;-1.33;100.00;100855.81;5094384;28;20076;-62
2024/01/16 03:14:47;;;;;;;0.40;0.40;;;;;;;-1.35;100.00;100863.28;5095722;28;20027;-62
2024/01/16 03:17:12;;;;;;;0.50;0.50;;;;;;;-1.37;100.00;100854.72;5094434;28;20020;-62
2024/01/16 03:19:37;;;;;;;0.60;0.60;;;;;;;-1.39;100.00;100857.91;5095884;28;20069;-62
2024/01/16 03:22:03;;;;;;;0.52;0.52;;;;;;;-1.42;100.00;100865.22;5095724;28;20071;-62
2024/01/16 03:24:28;;;;;;;0.50;0.50;;;;;;;-1.44;100.00;100862.59;5094522;28;20101;-61
2024/01/16 03:26:54;;;;;;;0.50;0.50;;;;;;;-1.45;100.00;100865.00;5095447;28;20020;-62
2024/01/16 03:29:19;;;;;;;0.43;0.43;;;;;;;-1.45;100.00;100860.81;5095157;28;20048;-62
2024/01/16 03:31:44;;;;;;;0.47;0.47;;;;;;;-1.47;100.00;100871.56;5095142;28;20020;-62
2024/01/16 03:34:10;;;;;;;0.60;0.60;;;;;;;-1.47;100.00;100866.50;5095050;28;20444;-62
2024/01/16 03:36:36;;;;;;;0.50;0.50;;;;;;;-1.46;100.00;100864.09;5095213;28;20020;-62
2024/01/16 03:39:01;;;;;;;0.40;0.40;;;;;;;-1.46;100.00;100861.56;5094861;28;20024;-62
2024/01/16 03:41:26;;;;;;;0.50;0.50;;;;;;;-1.47;100.00;100849.72;5094641;28;20048;-62
2024/01/16 03:43:54;;;;;;;0.43;0.43;;;;;;;-1.48;100.00;100855.53;5095285;28;20026;-62
2024/01/16 03:46:20;;;;;;;0.40;0.40;;;;;;;-1.47;100.00;100852.25;5094432;28;20383;-62
2024/01/16 03:48:45;;;;;;;0.47;0.47;;;;;;;-1.45;100.00;100860.81;5095209;28;20510;-62
2024/01/16 03:51:10;;;;;;;0.55;0.55;;;;;;;-1.46;100.00;100848.06;5094601;28;20468;-62
2024/01/16 03:53:36;;;;;;;0.40;0.40;;;;;;;-1.45;100.00;100844.78;5094518;28;20020;-62
2024/01/16 03:56:01;;;;;;;0.50;0.50;;;;;;;-1.46;100.00;100843.00;5094896;28;20028;-62
2024/01/16 03:58:26;;;;;;;0.50;0.50;;;;;;;-1.47;100.00;100841.25;5094668;28;20531;-62
2024/01/16 04:00:53;;;;;;;0.40;0.40;;;;;;;-1.46;100.00;100837.94;5094483;28;20024;-62
2024/01/16 04:03:18;;;;;;;0.50;0.50;;;;;;;-1.47;100.00;100837.09;5094617;28;20031;-62
2024/01/16 04:05:43;;;;;;;0.50;0.50;;;;;;;-1.47;100.00;100832.03;5094001;28;20107;-62
2024/01/16 04:08:09;;;;;;;0.50;0.50;;;;;;;-1.47;100.00;100833.66;5094670;28;20089;-62
2024/01/16 04:10:34;;;;;;;0.50;0.50;;;;;;;-1.45;100.00;100829.63;5094460;28;20039;-62
2024/01/16 04:13:01;;;;;;;0.52;0.52;;;;;;;-1.47;100.00;100826.97;5094109;28;20107;-62
2024/01/16 04:15:26;;;;;;;0.50;0.50;;;;;;;-1.47;100.00;100824.44;5094285;28;20464;-62
2024/01/16 04:17:52;;;;;;;0.60;0.60;;;;;;;-1.49;100.00;100819.25;5094582;28;20085;-62
2024/01/16 04:20:17;;;;;;;0.57;0.57;;;;;;;-1.50;100.00;100826.72;5093151;28;20107;-62
2024/01/16 04:22:42;;;;;;;0.50;0.50;;;;;;;-1.53;100.00;100814.72;5094253;28;20028;-62
2024/01/16 04:25:07;;;;;;;0.57;0.57;;;;;;;-1.54;100.00;100814.59;5094377;28;20103;-62
2024/01/16 04:27:33;;;;;;;0.50;0.50;;;;;;;-1.56;100.00;100808.53;5093163;28;20483;-62
2024/01/16 04:29:58;;;;;;;0.60;0.60;;;;;;;-1.58;100.00;100812.63;5094449;28;20028;-61
2024/01/16 04:32:23;;;;;;;0.52;0.52;;;;;;;-1.57;100.00;100806.81;5093803;28;20034;-62
2024/01/16 04:34:49;;;;;;;0.40;0.40;;;;;;;-1.60;100.00;100814.13;5093686;28;20025;-62
2024/01/16 04:37:14;;;;;;;0.55;0.55;;;;;;;-1.62;100.00;100810.63;5094065;28;20036;-62
2024/01/16 04:39:39;;;;;;;0.57;0.57;;;;;;;-1.64;100.00;100807.94;5093845;28;20490;-62
2024/01/16 04:42:05;;;;;;;0.60;0.60;;;;;;;-1.64;100.00;100807.06;5093404;28;20510;-62
2024/01/16 04:44:30;;;;;;;0.40;0.40;;;;;;;-1.66;100.00;100805.31;5093953;28;20031;-62
2024/01/16 04:46:55;;;;;;;0.50;0.50;;;;;;;-1.67;100.00;100808.59;5093798;28;20070;-62
2024/01/16 04:49:21;;;;;;;0.60;0.60;;;;;;;-1.68;100.00;100811.91;5093033;28;20024;-62
2024/01/16 04:51:47;;;;;;;0.50;0.50;;;;;;;-1.70;100.00;100813.41;5093923;28;20088;-62
2024/01/16 04:54:12;;;;;;;0.50;0.50;;;;;;;-1.73;100.00;100810.66;5092912;28;20031;-62
2024/01/16 04:56:38;;;;;;;0.50;0.50;;;;;;;-1.72;100.00;100819.13;5093465;28;20372;-62
2024/01/16 04:59:03;;;;;;;0.50;0.50;;;;;;;-1.64;100.00;100813.00;5093677;28;20032;-62
2024/01/16 05:01:28;;;;;;;0.60;0.60;;;;;;;-1.73;100.00;100810.66;5093145;28;20479;-62
2024/01/16 05:03:54;;;;;;;0.60;0.60;;;;;;;-1.76;100.00;100807.88;5093235;28;20012;-62
2024/01/16 05:06:20;;;;;;;0.50;0.50;;;;;;;-1.78;100.00;100811.94;5093305;28;20411;-62
2024/01/16 05:08:45;;;;;;;0.50;0.50;;;;;;;-1.79;100.00;100810.19;5093449;28;20129;-62
2024/01/16 05:11:11;;;;;;;0.50;0.50;;;;;;;-1.80;100.00;100810.94;5092907;28;20464;-62
2024/01/16 05:13:36;;;;;;;0.50;0.50;;;;;;;-1.82;100.00;100807.44;5093714;28;20031;-62
2024/01/16 05:16:01;;;;;;;0.60;0.60;;;;;;;-1.81;100.00;100804.09;5092973;28;20103;-62
2024/01/16 05:18:27;;;;;;;0.52;0.52;;;;;;;-1.81;100.00;100804.09;5093212;28;20028;-62
2024/01/16 05:20:52;;;;;;;0.60;0.60;;;;;;;-1.82;100.00;100803.25;5093570;28;20035;-62
2024/01/16 05:23:17;;;;;;;0.60;0.60;;;;;;;-1.83;100.00;100796.41;5092219;28;20782;-62
2024/01/16 05:25:43;;;;;;;0.60;0.60;;;;;;;-1.82;100.00;100794.78;5093459;28;20092;-62
2024/01/16 05:28:08;;;;;;;0.50;0.50;;;;;;;-1.83;100.00;100791.38;5093321;28;20020;-62
2024/01/16 05:30:34;;;;;;;0.50;0.50;;;;;;;-1.83;100.00;100790.50;5092521;28;20027;-62
2024/01/16 05:33:00;;;;;;;0.60;0.60;;;;;;;-1.84;100.00;100784.53;5093184;28;20039;-62
2024/01/16 05:35:29;;;;;;;0.43;0.43;;;;;;;-1.86;100.00;100786.09;5092258;28;20027;-62
2024/01/16 05:37:55;;;;;;;0.50;0.50;;;;;;;-1.87;100.00;100784.31;5092713;28;20031;-62
2024/01/16 05:40:21;;;;;;;0.50;0.50;;;;;;;-1.88;100.00;100782.53;5092974;28;20020;-62
2024/01/16 05:42:48;;;;;;;0.52;0.52;;;;;;;-1.90;100.00;100781.56;5092415;28;20817;-62
2024/01/16 05:45:13;;;;;;;0.50;0.50;;;;;;;-1.92;100.00;100782.19;5091814;28;20498;-62
2024/01/16 05:47:39;;;;;;;0.60;0.60;;;;;;;-1.95;100.00;100779.41;5092743;28;20024;-62
2024/01/16 05:50:05;;;;;;;0.68;0.68;;;;;;;-1.99;100.00;100769.09;5092601;28;20028;-62
2024/01/16 05:52:30;;;;;;;0.60;0.60;;;;;;;-1.99;100.00;100775.75;5092058;28;20027;-62
2024/01/16 05:54:57;;;;;;;0.60;0.60;;;;;;;-2.04;100.00;100770.38;5093191;28;20028;-62
2024/01/16 05:57:23;;;;;;;0.50;0.50;;;;;;;-2.07;100.00;100766.72;5092452;28;20020;-62
2024/01/16 05:59:48;;;;;;;0.60;0.60;;;;;;;-2.10;100.00;100767.34;5092536;28;20086;-62
2024/01/16 06:02:14;;;;;;;0.50;0.50;;;;;;;-2.11;100.00;100763.06;5092490;28;20391;-62
2024/01/16 06:04:39;;;;;;;0.50;0.50;;;;;;;-2.15;100.00;100764.44;5092685;28;20032;-62
2024/01/16 06:07:07;;;;;;;0.50;0.50;;;;;;;-2.18;100.00;100765.88;5091975;28;20028;-62
2024/01/16 06:09:32;;;;;;;0.70;0.70;;;;;;;-2.19;100.00;100764.09;5092665;28;20032;-62
2024/01/16 06:11:58;;;;;;;0.50;0.50;;;;;;;-2.20;100.00;100762.34;5092638;28;20025;-62
2024/01/16 06:14:23;;;;;;;0.50;0.50;;;;;;;-2.21;100.00;100770.66;5092258;28;20031;-62
2024/01/16 06:16:49;;;;;;;0.60;0.60;;;;;;;-2.23;100.00;100767.16;5092799;28;20531;-62
2024/01/16 06:19:15;;;;;;;0.50;0.50;;;;;;;-2.24;100.00;100761.19;5092245;28;20024;-62
2024/01/16 06:21:41;;;;;;;0.50;0.50;;;;;;;-2.27;100.00;100755.03;5092227;28;20016;-62
2024/01/16 06:24:06;;;;;;;0.50;0.50;;;;;;;-2.26;100.00;100759.31;5092749;28;20035;-61
2024/01/16 06:26:33;;;;;;;0.70;0.70;;;;;;;-2.28;100.00;100764.25;5091506;28;20379;-62
2024/01/16 06:28:58;;;;;;;0.60;0.60;;;;;;;-2.28;100.00;100758.34;5092431;28;20102;-62
2024/01/16 06:31:25;;;;;;;0.60;0.60;;;;;;;-2.22;100.00;100758.78;5092361;28;20506;-62
2024/01/16 06:33:51;;;;;;;0.60;0.60;;;;;;;-2.30;100.00;100754.78;5091800;28;20020;-62
2024/01/16 06:36:16;;;;;;;0.60;0.60;;;;;;;-2.33;100.00;100756.31;5092197;28;20111;-62
2024/01/16 06:38:41;;;;;;;0.50;0.50;;;;;;;-2.33;100.00;100763.88;5092600;28;20035;-62
2024/01/16 06:41:07;;;;;;;0.50;0.50;;;;;;;-2.32;100.00;100767.28;5091856;28;20073;-62
2024/01/16 06:43:32;;;;;;;0.68;0.68;;;;;;;-2.34;100.00;100768.81;5092692;28;20028;-62
2024/01/16 06:45:58;;;;;;;0.57;0.57;;;;;;;-2.35;100.00;100767.94;5093864;28;20031;-62
2024/01/16 06:48:23;;;;;;;0.60;0.60;;;;;;;-2.35;100.00;100767.03;5095469;28;20091;-62
2024/01/16 06:50:49;;;;;;;0.50;0.50;;;;;;;-2.36;100.00;100771.22;5096363;28;20113;-62
2024/01/16 06:53:15;;;;;;;0.50;0.50;;;;;;;-2.37;100.00;100771.97;5095634;28;20241;-62
2024/01/16 06:55:40;;;;;;;0.60;0.60;;;;;;;-2.39;100.00;100773.50;5095796;28;20489;-62
2024/01/16 06:58:05;;;;;;;0.60;0.60;;;;;;;-2.36;100.00;100780.44;5095878;28;20028;-62
2024/01/16 07:00:31;;;;;;;0.60;0.60;;;;;;;-2.36;100.00;100776.25;5095708;28;20016;-62
2024/01/16 07:02:57;;;;;;;0.60;0.60;;;;;;;-2.36;100.00;100776.25;5095554;28;20028;-62
2024/01/16 07:05:23;;;;;;;0.60;0.60;;;;;;;-2.36;100.00;100776.25;5095555;28;20058;-61
2024/01/16 07:07:48;;;;;;;0.60;0.60;;;;;;;-2.37;100.00;100777.00;5095873;28;20032;-62
2024/01/16 07:10:18;;;;;;;0.60;0.60;;;;;;;-2.36;100.00;100776.25;5094997;28;20023;-62
2024/01/16 07:12:44;;;;;;;0.60;0.60;;;;;;;-2.37;100.00;100783.72;5095975;28;20020;-62
2024/01/16 07:15:09;;;;;;;0.60;0.60;;;;;;;-2.38;100.00;100781.94;5095607;28;20034;-62
2024/01/16 07:17:34;;;;;;;0.50;0.50;;;;;;;-2.36;100.00;100795.59;5095406;28;20020;-62
2024/01/16 07:20:00;;;;;;;0.60;0.60;;;;;;;-2.38;100.00;100797.97;5095663;28;20099;-62
2024/01/16 07:22:25;;;;;;;0.60;0.60;;;;;;;-2.38;100.00;100792.91;5095192;28;20372;-62
2024/01/16 07:24:51;;;;;;;0.52;0.52;;;;;;;-2.39;100.00;100800.38;5094945;28;20028;-62
2024/01/16 07:27:17;;;;;;;0.60;0.60;;;;;;;-2.38;100.00;100799.63;5095221;28;20060;-62
2024/01/16 07:29:42;;;;;;;0.60;0.60;;;;;;;-2.38;100.00;100795.44;5094880;28;20079;-62
2024/01/16 07:32:07;;;;;;;0.50;0.50;;;;;;;-2.38;100.00;100803.00;5095518;28;20031;-62
2024/01/16 07:34:33;;;;;;;0.60;0.60;;;;;;;-2.38;100.00;100797.97;5095137;28;20395;-62
2024/01/16 07:36:58;;;;;;;0.60;0.60;;;;;;;-2.38;100.00;100805.53;5094812;28;20027;-62
2024/01/16 07:39:23;;;;;;;0.57;0.57;;;;;;;-2.38;100.00;100797.97;5095220;28;20487;-62
2024/01/16 07:41:49;;;;;;;0.50;0.50;;;;;;;-2.39;100.00;100801.28;5094819;28;20044;-62
2024/01/16 07:44:14;;;;;;;0.50;0.50;;;;;;;-2.37;100.00;100793.81;5094275;28;20031;-62
2024/01/16 07:46:39;;;;;;;0.50;0.50;;;;;;;-2.39;100.00;100800.38;5095113;28;20039;-62
2024/01/16 07:49:05;;;;;;;0.60;0.60;;;;;;;-2.40;100.00;100812.13;5094871;28;20016;-62
2024/01/16 07:51:31;;;;;;;0.50;0.50;;;;;;;-2.41;100.00;100801.91;5094399;28;20020;-63
2024/01/16 07:54:07;;;;;;;0.60;0.60;;;;;;;-2.38;100.00;100808.06;5095117;28;20028;-62
2024/01/16 07:56:33;;;;;;;0.57;0.57;;;;;;;-2.39;100.00;100813.88;5094423;28;20096;-62
2024/01/16 07:58:59;;;;;;;0.70;0.70;;;;;;;-2.39;100.00;100820.56;5093644;28;20020;-62
2024/01/16 08:01:24;;;;;;;0.50;0.50;;;;;;;-2.39;100.00;100820.56;5094344;28;20042;-62
2024/01/16 08:03:50;;;;;;;0.57;0.57;;;;;;;-2.40;100.00;100819.69;5094267;28;20024;-62
2024/01/16 08:06:15;;;;;;;0.60;0.60;;;;;;;-2.40;100.00;100814.63;5093765;28;20032;-62
2024/01/16 08:08:41;;;;;;;0.70;0.70;;;;;;;-2.39;100.00;100816.41;5094818;28;20032;-62
2024/01/16 08:11:07;;;;;;;0.60;0.60;;;;;;;-2.38;100.00;100823.19;5094489;28;20051;-62
2024/01/16 08:13:32;;;;;;;0.60;0.60;;;;;;;-2.38;100.00;100819.81;5093885;28;20020;-62
2024/01/16 08:15:58;;;;;;;0.60;0.60;;;;;;;-2.39;100.00;100823.09;5094625;28;20433;-62
2024/01/16 08:18:23;;;;;;;0.60;0.60;;;;;;;-2.40;100.00;100817.16;5093839;28;20035;-62
2024/01/16 08:20:48;;;;;;;0.60;0.60;;;;;;;-2.40;100.00;100827.25;5094058;28;20024;-62
2024/01/16 08:23:13;;;;;;;0.60;0.60;;;;;;;-2.41;100.00;100822.09;5094303;28;20028;-62
2024/01/16 08:25:39;;;;;;;0.60;0.60;;;;;;;-2.41;100.00;100819.56;5094263;28;20425;-62
2024/01/16 08:28:04;;;;;;;0.60;0.60;;;;;;;-2.42;100.00;100820.31;5093916;28;20024;-62
2024/01/16 08:30:30;;;;;;;0.60;0.60;;;;;;;-2.44;100.00;100820.19;5093931;28;20028;-62
2024/01/16 08:32:55;;;;;;;0.60;0.60;;;;;;;-2.42;100.00;100820.31;5093296;28;20060;-62
2024/01/16 08:35:20;;;;;;;0.60;0.60;;;;;;;-2.42;100.00;100821.19;5093988;28;20112;-61
2024/01/16 08:37:46;;;;;;;0.60;0.60;;;;;;;-2.41;100.00;100827.13;5093845;28;20043;-62
2024/01/16 08:40:11;;;;;;;0.60;0.60;;;;;;;-2.41;100.00;100829.66;5093064;28;20357;-61
2024/01/16 08:42:37;;;;;;;0.50;0.50;;;;;;;-2.40;100.00;100822.22;5093824;28;20404;-62
2024/01/16 08:45:03;;;;;;;0.50;0.50;;;;;;;-2.40;100.00;100829.78;5093697;28;20103;-62
2024/01/16 08:47:28;;;;;;;0.60;0.60;;;;;;;-2.30;100.00;100830.53;5092979;28;20050;-61
2024/01/16 08:49:53;;;;;;;0.60;0.60;;;;;;;-2.38;100.00;100822.31;5094044;28;20472;-62
2024/01/16 08:52:19;;;;;;;0.60;0.60;;;;;;;-2.40;100.00;100827.25;5093521;28;20487;-62
2024/01/16 08:54:44;;;;;;;0.60;0.60;;;;;;;-2.38;100.00;100822.31;5093298;28;20027;-62
2024/01/16 08:57:10;;;;;;;0.60;0.60;;;;;;;-2.39;100.00;100821.47;5093349;28;20527;-62
2024/01/16 08:59:35;;;;;;;0.45;0.45;;;;;;;-2.36;100.00;100818.31;5093501;28;20069;-62
2024/01/16 09:02:01;;;;;;;0.70;0.70;;;;;;;-2.36;100.00;100826.75;5093096;28;20024;-62
2024/01/16 09:04:26;;;;;;;0.60;0.60;;;;;;;-2.37;100.00;100835.06;5093638;28;20027;-62
2024/01/16 09:06:52;;;;;;;0.60;0.60;;;;;;;-2.34;100.00;100825.25;5092661;28;20081;-62
2024/01/16 09:09:17;;;;;;;0.50;0.50;;;;;;;-2.33;100.00;100831.16;5091517;28;20531;-62
2024/01/16 09:11:43;;;;;;;0.60;0.60;;;;;;;-2.32;100.00;100826.22;5092582;28;20101;-61
2024/01/16 09:14:08;;;;;;;0.57;0.57;;;;;;;-2.28;100.00;100829.00;5092124;28;20052;-61
2024/01/16 09:16:34;;;;;;;0.60;0.60;;;;;;;-2.27;100.00;100820.66;5092139;28;20016;-61
2024/01/16 09:18:59;;;;;;;0.60;0.60;;;;;;;-2.24;100.00;100820.94;5093062;28;20034;-62
2024/01/16 09:21:25;;;;;;;0.60;0.60;;;;;;;-2.21;100.00;100821.16;5092639;28;20104;-62
2024/01/16 09:23:50;;;;;;;0.50;0.50;;;;;;;-2.19;100.00;100822.19;5092925;28;20098;-61
2024/01/16 09:26:17;;;;;;;0.60;0.60;;;;;;;-2.17;100.00;100824.06;5093102;28;20140;-62
2024/01/16 09:28:42;;;;;;;0.60;0.60;;;;;;;-2.13;100.00;100815.09;5093042;28;20024;-62
2024/01/16 09:31:07;;;;;;;0.55;0.55;;;;;;;-2.07;100.00;100823.13;5092542;28;20027;-62
2024/01/16 09:33:34;;;;;;;0.60;0.60;;;;;;;-2.03;100.00;100817.59;5092604;28;20016;-61
2024/01/16 09:35:59;;;;;;;0.60;0.60;;;;;;;-1.99;100.00;100803.53;5093052;28;20028;-62
2024/01/16 09:38:25;;;;;;;0.50;0.50;;;;;;;-1.95;100.00;100799.63;5092124;28;20157;-62
2024/01/16 09:40:52;;;;;;;0.60;0.60;;;;;;;-1.94;100.00;100807.31;5092908;28;20463;-61
2024/01/16 09:43:20;;;;;;;0.60;0.60;;;;;;;-1.95;100.00;100809.72;5091786;28;20036;-62
2024/01/16 09:45:47;;;;;;;;;;;;;;;-1.85;100.00;100817.28;5093305;28;20460;-62
2024/01/16 09:48:13;;;;;;;0.60;0.60;;;;;;;-1.95;100.00;100814.78;5092430;28;20392;-62
2024/01/16 09:50:39;;;;;;;0.50;0.50;;;;;;;-1.96;100.00;100813.00;5092617;28;20031;-62
2024/01/16 09:53:04;;;;;;;0.50;0.50;;;;;;;-1.85;100.00;100817.28;5093030;28;20024;-62
2024/01/16 09:55:30;;;;;;;0.60;0.60;;;;;;;-1.90;100.00;100813.50;5092416;28;20031;-62
2024/01/16 09:57:55;;;;;;;0.60;0.60;;;;;;;-1.89;100.00;100827.91;5092205;28;20024;-61
2024/01/16 10:00:21;;;;;;;0.50;0.50;;;;;;;-1.90;100.00;100816.03;5092403;28;20491;-62
2024/01/16 10:02:47;;;;;;;0.50;0.50;;;;;;;-1.89;100.00;100810.22;5092732;28;20024;-62
2024/01/16 10:05:13;;;;;;;0.50;0.50;;;;;;;-1.87;100.00;100808.72;5091983;28;20483;-62
2024/01/16 10:07:39;;;;;;;0.60;0.60;;;;;;;-1.89;100.00;100800.09;5092810;28;20044;-62
2024/01/16 10:10:06;;;;;;;0.50;0.50;;;;;;;-1.87;100.00;100802.00;5092231;28;20464;-62
2024/01/16 10:12:33;;;;;;;0.50;0.50;;;;;;;-1.83;100.00;100800.59;5091809;28;20047;-57
2024/01/16 10:14:59;;;;;;;0.52;0.52;;;;;;;-1.82;100.00;100797.31;5092462;28;20024;-57
2024/01/16 10:17:40;;;;;;;0.60;0.60;;;;;;;-1.76;100.00;100801.94;5092055;28;20024;-56
2024/01/16 10:20:07;;;;;;;0.50;0.50;;;;;;;-1.75;100.00;100797.00;5092321;28;20384;-56
2024/01/16 10:22:33;;;;;;;0.50;0.50;;;;;;;-1.67;100.00;100790.91;5096500;28;20046;-58
2024/01/16 10:25:09;;;;;;;0.60;0.60;;;;;;;-1.62;100.00;100795.44;5096499;28;20016;-58
2024/01/16 10:27:35;;;;;;;0.60;0.60;;;;;;;-1.61;100.00;100787.97;5095955;28;20119;-58
2024/01/16 10:30:02;;;;;;;0.60;0.60;;;;;;;-1.47;100.00;100781.47;5096841;28;20052;-58
2024/01/16 10:32:29;;;;;;;0.60;0.60;;;;;;;-1.47;100.00;100780.56;5095469;28;20495;-57
2024/01/16 10:35:04;;;;;;;0.60;0.60;;;;;;;-1.46;100.00;100788.25;5096514;28;20020;-58
2024/01/16 10:37:29;;;;;;;0.60;0.60;;;;;;;-1.48;100.00;100779.69;5096076;28;20437;-58
2024/01/16 10:39:54;;;;;;;0.60;0.60;;;;;;;-1.39;100.00;100774.47;5095905;28;20099;-58
2024/01/16 10:42:20;;;;;;;0.50;0.50;;;;;;;-1.31;100.00;100777.59;5096036;28;20044;-58
2024/01/16 10:44:55;;;;;;;0.50;0.50;;;;;;;-1.28;100.00;100776.16;5096226;28;20028;-58
2024/01/16 10:47:22;;;;;;;0.50;0.50;;;;;;;-1.26;100.00;100769.56;5095551;28;20023;-58
2024/01/16 10:49:48;;;;;;;0.60;0.60;;;;;;;-1.14;100.00;100778.84;5096351;28;20056;-58
2024/01/16 10:52:14;;;;;;;0.60;0.60;;;;;;;-1.14;100.00;100781.38;5095735;28;20108;-58
2024/01/16 10:54:44;;;;;;;0.60;0.60;;;;;;;-1.08;100.00;100782.72;5095835;28;20089;-58
2024/01/16 10:57:12;;;;;;;0.55;0.55;;;;;;;-0.97;100.00;100777.59;5096093;28;20020;-59
2024/01/16 10:59:53;;;;;;;0.50;0.50;;;;;;;-0.89;100.00;100768.91;5096074;28;20042;-58
2024/01/16 11:02:21;;;;;;;0.60;0.60;;;;;;;-0.84;100.00;100767.59;5095504;28;20460;-58
2024/01/16 11:04:48;;;;;;;0.60;0.60;;;;;;;-0.76;100.00;100758.94;5096112;28;20028;-58
2024/01/16 11:07:14;;;;;;;0.60;0.60;;;;;;;-0.75;100.00;100762.34;5095384;28;20036;-58
2024/01/16 11:09:41;;;;;;;0.60;0.60;;;;;;;-0.67;100.00;100761.28;5095422;28;20075;-58